createdAt,value
2018-09-17T00:00:26.049Z,73.10
2018-09-17T00:02:54.610Z,72.79
2018-09-17T00:05:23.148Z,73.22
2018-09-17T00:07:51.680Z,72.51
2018-09-17T00:10:20.328Z,72.43
2018-09-17T00:12:48.867Z,73.08
2018-09-17T00:15:17.398Z,73.09
2018-09-17T00:17:45.935Z,73.45
2018-09-17T00:20:14.465Z,73.42
2018-09-17T00:22:42.987Z,73.38
2018-09-17T00:25:11.628Z,72.53
2018-09-17T00:27:40.194Z,73.65
2018-09-17T00:30:08.776Z,73.19
2018-09-17T00:32:37.368Z,73.24
2018-09-17T00:35:05.910Z,73.03
2018-09-17T00:37:34.477Z,72.90
2018-09-17T00:40:03.012Z,73.46
2018-09-17T00:42:31.540Z,73.24
2018-09-17T00:45:00.049Z,73.74
2018-09-17T00:47:28.602Z,74.02
2018-09-17T00:49:57.179Z,73.84
2018-09-17T00:52:25.694Z,73.75
2018-09-17T00:54:54.222Z,74.24
2018-09-17T00:57:22.771Z,73.94
2018-09-17T00:59:51.426Z,73.83
2018-09-17T01:02:19.927Z,72.78
2018-09-17T01:04:48.423Z,73.67
2018-09-17T01:07:17.001Z,73.55
2018-09-17T01:09:45.544Z,73.44
2018-09-17T01:12:15.356Z,73.51
2018-09-17T01:14:44.126Z,74.33
2018-09-17T01:19:57.946Z,73.56
2018-09-17T01:22:26.507Z,73.91
2018-09-17T01:24:55.011Z,74.17
2018-09-17T01:27:23.594Z,73.98
2018-09-17T01:29:52.091Z,74.16
2018-09-17T01:32:20.635Z,74.10
2018-09-17T01:34:49.184Z,73.57
2018-09-17T01:37:18.719Z,73.54
2018-09-17T01:39:47.273Z,73.82
2018-09-17T01:42:15.795Z,73.70
2018-09-17T01:44:44.358Z,73.96
2018-09-17T01:47:13.028Z,73.96
2018-09-17T01:49:41.573Z,73.11
2018-09-17T01:52:10.181Z,73.37
2018-09-17T01:54:38.679Z,73.43
2018-09-17T01:57:07.219Z,73.18
2018-09-17T01:59:35.751Z,73.37
2018-09-17T02:02:05.491Z,74.34
2018-09-17T02:04:34.035Z,73.91
2018-09-17T02:07:02.625Z,74.21
2018-09-17T02:09:31.190Z,73.92
2018-09-17T02:11:59.795Z,74.40
2018-09-17T02:14:28.344Z,74.17
2018-09-17T02:16:56.872Z,74.80
2018-09-17T02:19:25.459Z,74.45
2018-09-17T02:21:53.987Z,74.43
2018-09-17T02:24:22.689Z,74.75
2018-09-17T02:26:51.250Z,74.94
2018-09-17T02:29:19.857Z,74.54
2018-09-17T02:31:48.403Z,75.07
2018-09-17T02:34:17.096Z,74.20
2018-09-17T02:36:45.851Z,74.28
2018-09-17T02:39:15.126Z,75.11
2018-09-17T02:41:44.407Z,74.51
2018-09-17T02:44:14.029Z,74.27
2018-09-17T02:46:42.606Z,74.59
2018-09-17T02:49:11.262Z,75.45
2018-09-17T02:51:39.835Z,74.72
2018-09-17T02:54:08.417Z,74.68
2018-09-17T02:56:37.005Z,74.96
2018-09-17T02:59:05.559Z,74.57
2018-09-17T03:01:34.072Z,74.59
2018-09-17T03:04:02.704Z,75.38
2018-09-17T03:06:31.287Z,74.81
2018-09-17T03:08:59.885Z,74.00
2018-09-17T03:11:28.802Z,73.46
2018-09-17T03:13:57.357Z,73.64
2018-09-17T03:16:25.898Z,73.02
2018-09-17T03:18:55.742Z,73.32
2018-09-17T03:21:25.072Z,72.96
2018-09-17T03:23:53.886Z,72.44
2018-09-17T03:26:22.724Z,73.21
2018-09-17T03:28:51.298Z,73.45
2018-09-17T03:31:19.902Z,72.96
2018-09-17T03:33:48.461Z,73.65
2018-09-17T03:36:17.024Z,73.39
2018-09-17T03:38:50.098Z,73.00
2018-09-17T03:41:19.721Z,73.48
2018-09-17T03:43:52.370Z,73.29
2018-09-17T03:46:20.933Z,72.81
2018-09-17T03:48:49.735Z,72.98
2018-09-17T03:51:18.553Z,72.62
2018-09-17T03:53:47.104Z,72.08
2018-09-17T03:56:15.680Z,73.09
2018-09-17T03:58:44.265Z,72.85
2018-09-17T04:01:12.796Z,73.02
2018-09-17T04:03:41.438Z,72.58
2018-09-17T04:06:09.984Z,72.90
2018-09-17T04:08:38.542Z,72.87
2018-09-17T04:11:07.059Z,72.51
2018-09-17T04:13:35.694Z,72.41
2018-09-17T04:16:04.252Z,73.15
2018-09-17T04:18:32.862Z,72.46
2018-09-17T04:21:01.440Z,72.73
2018-09-17T04:23:32.794Z,73.09
2018-09-17T04:26:01.813Z,73.54
2018-09-17T04:28:30.444Z,73.39
2018-09-17T04:30:59.279Z,73.37
2018-09-17T04:33:29.286Z,73.01
2018-09-17T04:35:57.888Z,72.82
2018-09-17T04:38:26.461Z,72.94
2018-09-17T04:40:55.054Z,72.12
2018-09-17T04:43:23.666Z,72.65
2018-09-17T04:45:52.272Z,72.24
2018-09-17T04:48:20.975Z,72.46
2018-09-17T04:50:49.624Z,72.91
2018-09-17T04:53:18.310Z,72.38
2018-09-17T04:55:46.888Z,71.37
2018-09-17T04:58:15.539Z,72.38
2018-09-17T05:00:44.109Z,71.56
2018-09-17T05:03:13.706Z,72.17
2018-09-17T05:05:42.876Z,72.97
2018-09-17T05:08:11.458Z,71.43
2018-09-17T05:10:40.016Z,71.95
2018-09-17T05:13:08.707Z,72.08
2018-09-17T05:15:37.160Z,72.03
2018-09-17T05:18:06.031Z,72.42
2018-09-17T05:20:34.583Z,73.07
2018-09-17T05:23:03.171Z,73.80
2018-09-17T05:25:31.751Z,74.07
2018-09-17T05:28:00.356Z,73.71
2018-09-17T05:30:29.943Z,74.55
2018-09-17T05:32:58.516Z,73.72
2018-09-17T05:35:27.083Z,74.29
2018-09-17T05:37:55.751Z,74.62
2018-09-17T05:40:24.429Z,74.18
2018-09-17T05:42:52.966Z,73.89
2018-09-17T05:45:21.563Z,74.65
2018-09-17T05:47:50.230Z,74.14
2018-09-17T05:50:18.718Z,73.98
2018-09-17T05:52:47.315Z,73.79
2018-09-17T05:55:15.874Z,74.85
2018-09-17T05:57:44.432Z,72.96
2018-09-17T06:00:13.012Z,75.42
2018-09-17T06:02:41.615Z,75.98
2018-09-17T06:05:10.184Z,75.08
2018-09-17T06:07:38.783Z,73.59
2018-09-17T06:10:12.560Z,73.65
2018-09-17T06:12:41.110Z,72.49
2018-09-17T06:15:09.653Z,72.35
2018-09-17T06:17:38.345Z,71.15
2018-09-17T06:20:06.851Z,71.55
2018-09-17T06:22:35.446Z,71.17
2018-09-17T06:25:04.348Z,69.68
2018-09-17T06:27:32.869Z,70.33
2018-09-17T06:30:01.402Z,71.42
2018-09-17T06:32:30.004Z,70.32
2018-09-17T06:34:58.636Z,71.63
2018-09-17T06:37:27.162Z,73.01
2018-09-17T06:39:55.702Z,73.91
2018-09-17T06:42:24.274Z,74.43
2018-09-17T06:44:52.917Z,74.45
2018-09-17T06:47:22.388Z,74.79
2018-09-17T06:49:51.023Z,75.13
2018-09-17T06:52:19.585Z,75.44
2018-09-17T06:54:48.192Z,75.74
2018-09-17T06:57:16.767Z,76.31
2018-09-17T06:59:45.306Z,76.63
2018-09-17T07:02:13.955Z,76.98
2018-09-17T07:04:42.549Z,77.08
2018-09-17T07:07:11.763Z,75.45
2018-09-17T07:09:41.155Z,76.07
2018-09-17T07:12:09.858Z,74.25
2018-09-17T07:14:38.437Z,75.05
2018-09-17T07:17:07.041Z,74.04
2018-09-17T07:19:35.560Z,75.16
2018-09-17T07:22:04.112Z,74.72
2018-09-17T07:24:32.705Z,74.86
2018-09-17T07:27:01.215Z,74.62
2018-09-17T07:29:29.710Z,76.06
2018-09-17T07:31:58.194Z,76.12
2018-09-17T07:34:26.670Z,77.17
2018-09-17T07:36:55.179Z,76.68
2018-09-17T07:39:23.650Z,76.53
2018-09-17T07:41:52.395Z,76.97
2018-09-17T07:44:20.903Z,77.15
2018-09-17T07:46:49.394Z,77.63
2018-09-17T07:49:17.910Z,77.83
2018-09-17T07:51:46.394Z,78.06
2018-09-17T07:54:14.901Z,77.84
2018-09-17T07:56:43.798Z,77.13
2018-09-17T07:59:12.273Z,77.67
2018-09-17T08:01:40.854Z,77.04
2018-09-17T08:04:09.371Z,78.19
2018-09-17T08:06:37.880Z,78.03
2018-09-17T08:09:09.695Z,78.65
2018-09-17T08:11:38.311Z,78.34
2018-09-17T08:14:06.971Z,77.39
2018-09-17T08:16:35.696Z,77.81
2018-09-17T08:19:04.319Z,78.15
2018-09-17T08:21:32.835Z,78.92
2018-09-17T08:24:01.352Z,78.36
2018-09-17T08:26:29.887Z,78.69
2018-09-17T08:28:58.400Z,78.48
2018-09-17T08:31:26.924Z,78.83
2018-09-17T08:33:55.412Z,80.03
2018-09-17T08:36:23.940Z,79.74
2018-09-17T08:38:52.439Z,79.02
2018-09-17T08:41:20.939Z,80.88
2018-09-17T08:43:49.467Z,81.13
2018-09-17T08:46:17.979Z,80.43
2018-09-17T08:48:46.666Z,79.63
2018-09-17T08:51:15.176Z,79.36
2018-09-17T08:53:43.824Z,79.73
2018-09-17T08:56:17.395Z,80.97
2018-09-17T08:58:51.083Z,80.49
2018-09-17T09:01:24.891Z,80.44
2018-09-17T09:03:58.777Z,80.68
2018-09-17T09:07:33.380Z,80.04
2018-09-17T09:10:07.209Z,80.61
2018-09-17T09:12:40.243Z,80.08
2018-09-17T09:15:13.911Z,79.44
2018-09-17T09:17:42.404Z,79.65
2018-09-17T09:20:10.887Z,79.56
2018-09-17T09:22:39.419Z,80.04
2018-09-17T09:25:07.993Z,80.52
2018-09-17T09:27:36.470Z,81.64
2018-09-17T09:30:05.130Z,81.82
2018-09-17T09:32:33.655Z,82.78
2018-09-17T09:35:02.163Z,81.51
2018-09-17T09:37:30.675Z,82.79
2018-09-17T09:39:59.163Z,83.72
2018-09-17T09:42:27.652Z,83.76
2018-09-17T09:44:56.165Z,83.89
2018-09-17T09:47:24.647Z,82.74
2018-09-17T09:49:53.130Z,82.86
2018-09-17T09:52:21.618Z,82.71
2018-09-17T09:54:50.095Z,82.93
2018-09-17T09:57:18.621Z,82.78
2018-09-17T09:59:47.105Z,83.25
2018-09-17T10:03:23.629Z,84.12
2018-09-17T10:05:52.107Z,82.75
2018-09-17T10:08:20.609Z,82.38
2018-09-17T10:10:54.412Z,82.39
2018-09-17T10:13:28.230Z,83.27
2018-09-17T10:15:58.061Z,83.28
2018-09-17T10:18:31.970Z,82.94
2018-09-17T10:21:02.198Z,83.83
2018-09-17T10:23:30.791Z,83.24
2018-09-17T10:25:59.551Z,83.42
2018-09-17T10:28:29.007Z,83.65
2018-09-17T10:30:57.987Z,83.14
2018-09-17T10:33:26.687Z,83.13
2018-09-17T10:35:55.330Z,83.06
2018-09-17T10:38:23.924Z,82.74
2018-09-17T10:40:52.577Z,83.22
2018-09-17T10:43:21.193Z,83.04
2018-09-17T10:45:49.748Z,83.14
2018-09-17T10:48:18.314Z,82.62
2018-09-17T10:50:46.919Z,83.22
2018-09-17T10:53:15.625Z,83.20
2018-09-17T10:55:44.201Z,82.87
2018-09-17T10:58:12.797Z,82.61
2018-09-17T11:00:41.463Z,82.55
2018-09-17T11:03:10.007Z,82.59
2018-09-17T11:05:38.562Z,83.21
2018-09-17T11:08:07.231Z,82.57
2018-09-17T11:10:35.822Z,82.63
2018-09-17T11:13:04.388Z,83.15
2018-09-17T11:15:38.170Z,83.40
2018-09-17T11:18:06.827Z,83.65
2018-09-17T11:20:35.494Z,81.77
2018-09-17T11:23:04.022Z,81.77
2018-09-17T11:25:32.544Z,82.23
2018-09-17T11:28:01.055Z,81.61
2018-09-17T11:30:29.563Z,80.78
2018-09-17T11:32:58.080Z,80.99
2018-09-17T11:35:26.557Z,81.28
2018-09-17T11:37:55.045Z,80.42
2018-09-17T11:40:23.545Z,80.44
2018-09-17T11:42:52.039Z,80.34
2018-09-17T11:45:20.523Z,81.12
2018-09-17T11:47:49.028Z,81.28
2018-09-17T11:50:17.527Z,81.76
2018-09-17T11:52:46.028Z,80.91
2018-09-17T11:55:14.518Z,81.15
2018-09-17T11:57:43.016Z,81.08
2018-09-17T12:00:11.559Z,80.86
2018-09-17T12:02:44.173Z,79.07
2018-09-17T12:05:16.783Z,79.97
2018-09-17T12:07:45.278Z,80.88
2018-09-17T12:10:13.793Z,79.51
2018-09-17T12:12:42.292Z,80.98
2018-09-17T12:15:10.812Z,80.68
2018-09-17T12:17:39.294Z,80.21
2018-09-17T12:20:07.776Z,80.80
2018-09-17T12:22:36.315Z,80.72
2018-09-17T12:25:04.818Z,80.17
2018-09-17T12:27:33.511Z,78.57
2018-09-17T12:30:02.114Z,78.63
2018-09-17T12:32:30.736Z,79.37
2018-09-17T12:34:59.316Z,79.48
2018-09-17T12:37:30.065Z,80.54
2018-09-17T12:39:58.707Z,79.77
2018-09-17T12:42:27.383Z,79.51
2018-09-17T12:44:56.017Z,81.36
2018-09-17T12:47:24.621Z,81.72
2018-09-17T12:49:53.227Z,80.85
2018-09-17T12:52:21.937Z,80.77
2018-09-17T12:54:50.564Z,81.26
2018-09-17T12:57:19.258Z,81.70
2018-09-17T12:59:47.862Z,81.35
2018-09-17T13:02:16.906Z,82.02
2018-09-17T13:04:45.801Z,82.27
2018-09-17T13:07:14.409Z,82.00
2018-09-17T13:09:43.064Z,82.78
2018-09-17T13:12:11.664Z,81.72
2018-09-17T13:14:40.311Z,82.17
2018-09-17T13:17:08.944Z,81.60
2018-09-17T13:19:37.553Z,81.54
2018-09-17T13:22:06.159Z,82.08
2018-09-17T13:24:44.630Z,82.28
2018-09-17T13:27:13.160Z,81.63
2018-09-17T13:29:41.792Z,81.66
2018-09-17T13:32:10.467Z,80.77
2018-09-17T13:34:39.621Z,80.94
2018-09-17T13:37:09.364Z,80.31
2018-09-17T13:39:37.940Z,78.22
2018-09-17T13:42:06.577Z,78.69
2018-09-17T13:44:35.197Z,80.00
2018-09-17T13:47:03.960Z,80.41
2018-09-17T13:49:32.508Z,80.14
2018-09-17T13:52:01.117Z,81.29
2018-09-17T13:54:29.907Z,80.30
2018-09-17T13:56:58.570Z,80.69
2018-09-17T13:59:27.211Z,79.87
2018-09-17T14:01:55.760Z,80.07
2018-09-17T14:04:24.458Z,79.68
2018-09-17T14:06:53.058Z,79.06
2018-09-17T14:09:21.663Z,79.18
2018-09-17T14:11:50.307Z,78.66
2018-09-17T14:14:18.937Z,77.62
2018-09-17T14:16:47.575Z,78.43
2018-09-17T14:19:16.172Z,79.03
2018-09-17T14:21:44.741Z,79.98
2018-09-17T14:24:13.312Z,79.80
2018-09-17T14:26:41.858Z,79.95
2018-09-17T14:29:11.031Z,80.05
2018-09-17T14:32:45.545Z,79.65
2018-09-17T14:35:14.195Z,78.82
2018-09-17T14:37:45.694Z,79.97
2018-09-17T14:40:14.335Z,80.00
2018-09-17T14:42:42.982Z,80.33
2018-09-17T14:45:11.583Z,80.79
2018-09-17T14:47:40.222Z,80.73
2018-09-17T14:50:08.795Z,80.75
2018-09-17T14:52:37.484Z,81.01
2018-09-17T14:55:06.158Z,80.21
2018-09-17T14:57:34.732Z,80.85
2018-09-17T15:00:03.418Z,81.36
2018-09-17T15:02:32.169Z,80.91
2018-09-17T15:05:00.722Z,80.76
2018-09-17T15:07:29.324Z,80.87
2018-09-17T15:09:58.238Z,81.45
2018-09-17T15:12:26.855Z,80.78
2018-09-17T15:14:55.609Z,80.69
2018-09-17T15:17:24.184Z,81.25
2018-09-17T15:19:52.698Z,81.22
2018-09-17T15:22:21.384Z,81.54
2018-09-17T15:24:49.986Z,78.92
2018-09-17T15:27:18.470Z,80.59
2018-09-17T15:29:46.955Z,80.67
2018-09-17T15:32:15.520Z,80.72
2018-09-17T15:34:43.973Z,81.45
2018-09-17T15:37:12.565Z,80.86
2018-09-17T15:39:41.043Z,80.76
2018-09-17T15:42:09.582Z,81.34
2018-09-17T15:44:38.081Z,80.99
2018-09-17T15:47:06.620Z,81.18
2018-09-17T15:49:35.195Z,81.29
2018-09-17T15:52:03.670Z,79.81
2018-09-17T15:54:32.191Z,80.72
2018-09-17T15:57:00.716Z,81.03
2018-09-17T15:59:29.219Z,81.26
2018-09-17T16:01:57.728Z,81.29
2018-09-17T16:04:26.303Z,81.31
2018-09-17T16:06:54.814Z,81.56
2018-09-17T16:09:23.445Z,81.61
2018-09-17T16:11:52.223Z,81.54
2018-09-17T16:14:20.703Z,81.29
2018-09-17T16:16:49.233Z,80.96
2018-09-17T16:19:17.838Z,81.05
2018-09-17T16:21:46.383Z,81.74
2018-09-17T16:24:14.906Z,81.41
2018-09-17T16:26:43.443Z,81.78
2018-09-17T16:29:11.928Z,81.44
2018-09-17T16:31:40.449Z,81.79
2018-09-17T16:34:09.012Z,81.53
2018-09-17T16:36:37.566Z,81.42
2018-09-17T16:39:08.398Z,81.62
2018-09-17T16:41:37.039Z,81.75
2018-09-17T16:44:05.599Z,82.02
2018-09-17T16:46:34.719Z,82.24
2018-09-17T16:49:03.425Z,81.47
2018-09-17T16:51:32.346Z,81.55
2018-09-17T16:54:00.849Z,81.66
2018-09-17T16:56:29.358Z,81.95
2018-09-17T16:58:57.987Z,82.34
2018-09-17T17:01:26.461Z,81.72
2018-09-17T17:03:54.975Z,82.01
2018-09-17T17:06:23.723Z,82.35
2018-09-17T17:08:52.274Z,82.54
2018-09-17T17:11:20.893Z,82.58
2018-09-17T17:13:49.424Z,82.32
2018-09-17T17:16:17.985Z,82.47
2018-09-17T17:18:46.492Z,81.92
2018-09-17T17:21:14.910Z,83.38
2018-09-17T17:23:43.504Z,82.44
2018-09-17T17:26:12.002Z,82.70
2018-09-17T17:28:41.355Z,82.85
2018-09-17T17:31:09.951Z,82.33
2018-09-17T17:33:38.455Z,82.44
2018-09-17T17:36:07.023Z,82.29
2018-09-17T17:38:35.715Z,82.45
2018-09-17T17:41:04.255Z,82.87
2018-09-17T17:43:32.745Z,82.74
2018-09-17T17:46:01.350Z,82.33
2018-09-17T17:48:29.802Z,82.88
2018-09-17T17:50:58.352Z,82.71
2018-09-17T17:53:26.907Z,82.55
2018-09-17T17:55:55.382Z,82.64
2018-09-17T17:58:23.953Z,83.17
2018-09-17T18:00:52.448Z,83.03
2018-09-17T18:03:21.022Z,83.32
2018-09-17T18:05:49.675Z,82.90
2018-09-17T18:08:18.245Z,82.79
2018-09-17T18:10:46.857Z,83.03
2018-09-17T18:13:15.636Z,83.25
2018-09-17T18:15:44.183Z,83.31
2018-09-17T18:18:12.779Z,83.25
2018-09-17T18:20:41.411Z,83.13
2018-09-17T18:23:09.968Z,83.09
2018-09-17T18:25:38.543Z,83.28
2018-09-17T18:28:07.241Z,82.98
2018-09-17T18:30:35.868Z,83.22
2018-09-17T18:33:05.123Z,83.12
2018-09-17T18:35:33.682Z,83.99
2018-09-17T18:38:02.322Z,83.63
2018-09-17T18:40:30.867Z,83.58
2018-09-17T18:42:59.535Z,84.29
2018-09-17T18:45:27.990Z,83.67
2018-09-17T18:47:56.719Z,84.14
2018-09-17T18:50:25.270Z,84.24
2018-09-17T18:52:53.966Z,83.82
2018-09-17T18:55:22.531Z,83.64
2018-09-17T18:57:51.153Z,83.38
2018-09-17T19:00:19.743Z,83.95
2018-09-17T19:02:48.452Z,83.85
2018-09-17T19:05:17.134Z,83.99
2018-09-17T19:07:45.744Z,83.91
2018-09-17T19:10:14.311Z,83.73
2018-09-17T19:12:43.021Z,84.24
2018-09-17T19:15:16.881Z,83.63
2018-09-17T19:17:45.394Z,84.09
2018-09-17T19:20:14.010Z,83.94
2018-09-17T19:22:47.798Z,84.27
2018-09-17T19:25:16.709Z,84.25
2018-09-17T19:27:50.427Z,84.96
2018-09-17T19:30:20.229Z,84.67
2018-09-17T19:32:48.756Z,84.43
2018-09-17T19:35:17.327Z,84.09
2018-09-17T19:37:51.108Z,84.46
2018-09-17T19:40:21.268Z,84.56
2018-09-17T19:42:50.644Z,84.34
2018-09-17T19:45:24.378Z,83.84
2018-09-17T19:47:53.390Z,84.07
2018-09-17T19:50:27.115Z,84.03
2018-09-17T19:52:55.817Z,84.54
2018-09-17T19:55:24.350Z,84.15
2018-09-17T19:57:58.101Z,83.97
2018-09-17T20:00:26.794Z,84.51
2018-09-17T20:02:55.289Z,83.83
2018-09-17T20:05:29.359Z,84.13
2018-09-17T20:07:57.882Z,84.67
2018-09-17T20:10:26.493Z,84.23
2018-09-17T20:12:55.042Z,84.09
2018-09-17T20:15:23.598Z,84.11
2018-09-17T20:17:52.189Z,84.39
2018-09-17T20:20:20.857Z,84.37
2018-09-17T20:22:49.453Z,84.07
2018-09-17T20:25:18.003Z,83.88
2018-09-17T20:27:46.579Z,84.05
2018-09-17T20:30:15.218Z,83.87
2018-09-17T20:32:43.996Z,84.49
2018-09-17T20:35:12.595Z,84.31
2018-09-17T20:37:41.170Z,84.09
2018-09-17T20:40:09.677Z,84.04
2018-09-17T20:42:38.191Z,83.93
2018-09-17T20:45:06.784Z,83.41
2018-09-17T20:47:35.300Z,83.60
2018-09-17T20:50:03.820Z,83.83
2018-09-17T20:52:32.458Z,84.36
2018-09-17T20:55:01.130Z,83.94
2018-09-17T20:57:29.677Z,83.56
2018-09-17T20:59:58.697Z,84.11
2018-09-17T21:02:27.218Z,84.09
2018-09-17T21:04:55.807Z,83.92
2018-09-17T21:07:24.383Z,84.59
2018-09-17T21:09:52.935Z,84.50
2018-09-17T21:12:21.560Z,84.39
2018-09-17T21:14:50.117Z,84.57
2018-09-17T21:17:18.657Z,84.65
2018-09-17T21:19:47.226Z,84.75
2018-09-17T21:22:15.896Z,83.89
2018-09-17T21:24:45.392Z,84.62
2018-09-17T21:27:13.948Z,84.05
2018-09-17T21:29:42.545Z,83.86
2018-09-17T21:32:11.149Z,84.16
2018-09-17T21:34:39.681Z,84.39
2018-09-17T21:37:08.239Z,84.22
2018-09-17T21:39:36.769Z,84.08
2018-09-17T21:42:05.286Z,84.32
2018-09-17T21:44:33.843Z,84.38
2018-09-17T21:47:02.379Z,84.65
2018-09-17T21:49:30.920Z,84.35
2018-09-17T21:51:59.498Z,84.80
2018-09-17T21:54:28.060Z,84.79
2018-09-17T21:56:56.610Z,84.20
2018-09-17T21:59:25.273Z,83.89
2018-09-17T22:01:53.898Z,84.32
2018-09-17T22:04:22.496Z,84.36
2018-09-17T22:06:50.991Z,84.44
2018-09-17T22:09:19.527Z,84.13
2018-09-17T22:11:48.152Z,83.75
2018-09-17T22:14:16.832Z,83.67
2018-09-17T22:16:45.318Z,84.19
2018-09-17T22:19:13.886Z,84.31
2018-09-17T22:21:42.439Z,83.94
2018-09-17T22:24:11.020Z,83.42
2018-09-17T22:26:39.560Z,84.00
2018-09-17T22:29:08.304Z,84.25
2018-09-17T22:31:36.781Z,83.83
2018-09-17T22:34:05.311Z,84.16
2018-09-17T22:36:33.834Z,83.31
2018-09-17T22:39:02.474Z,83.91
2018-09-17T22:41:31.014Z,83.48
2018-09-17T22:43:59.543Z,83.81
2018-09-17T22:46:28.172Z,83.50
2018-09-17T22:48:56.747Z,83.39
2018-09-17T22:51:25.967Z,84.06
2018-09-17T22:53:55.050Z,84.19
2018-09-17T22:56:23.602Z,83.52
2018-09-17T22:58:52.129Z,83.85
2018-09-17T23:01:20.691Z,83.12
2018-09-17T23:03:49.237Z,83.32
2018-09-17T23:06:17.711Z,83.09
2018-09-17T23:08:46.225Z,83.53
2018-09-17T23:11:14.757Z,83.52
2018-09-17T23:13:43.315Z,83.51
2018-09-17T23:16:11.833Z,83.20
2018-09-17T23:18:40.333Z,83.51
2018-09-17T23:21:08.930Z,83.18
2018-09-17T23:23:37.476Z,83.69
2018-09-17T23:26:06.060Z,83.61
2018-09-17T23:28:34.626Z,83.42
2018-09-17T23:31:03.210Z,82.50
2018-09-17T23:33:31.814Z,82.62
2018-09-17T23:36:00.411Z,82.07
2018-09-17T23:38:29.922Z,82.32
2018-09-17T23:40:58.504Z,82.45
2018-09-17T23:43:27.114Z,81.65
2018-09-17T23:45:55.598Z,81.84
2018-09-17T23:48:24.162Z,82.11
2018-09-17T23:50:52.699Z,82.20
2018-09-17T23:53:21.253Z,81.97
2018-09-17T23:55:49.802Z,82.01
2018-09-17T23:58:18.315Z,81.19
